createdAt,value
2023-03-26T00:01:39.366Z,70.12
2023-03-26T00:04:07.763Z,69.78
2023-03-26T00:06:39.285Z,69.58
2023-03-26T00:09:09.841Z,69.84
2023-03-26T00:11:37.029Z,69.37
2023-03-26T00:14:05.750Z,70.02
2023-03-26T00:16:33.404Z,69.36
2023-03-26T00:19:01.883Z,69.71
2023-03-26T00:21:30.975Z,69.98
2023-03-26T00:24:04.590Z,69.54
2023-03-26T00:26:38.493Z,69.28
2023-03-26T00:29:07.010Z,69.93
2023-03-26T00:31:35.929Z,70.03
2023-03-26T00:34:03.963Z,70.50
2023-03-26T00:36:31.491Z,70.15
2023-03-26T00:38:58.832Z,69.77
2023-03-26T00:41:31.154Z,70.17
2023-03-26T00:43:59.950Z,70.01
2023-03-26T00:46:29.787Z,69.72
2023-03-26T00:48:59.079Z,69.66
2023-03-26T00:51:28.285Z,70.31
2023-03-26T00:53:55.986Z,69.94
2023-03-26T00:56:23.272Z,69.92
2023-03-26T00:58:50.679Z,70.09
2023-03-26T01:01:27.520Z,70.04
2023-03-26T01:04:08.210Z,70.03
2023-03-26T01:06:39.147Z,70.21
2023-03-26T01:09:16.315Z,70.28
2023-03-26T01:11:44.393Z,70.41
2023-03-26T01:14:16.305Z,70.59
2023-03-26T01:16:50.139Z,70.44
2023-03-26T01:19:45.272Z,70.96
2023-03-26T01:22:22.134Z,70.90
2023-03-26T01:24:53.908Z,70.82
2023-03-26T01:27:35.908Z,70.32
2023-03-26T01:30:10.605Z,70.50
2023-03-26T01:32:47.724Z,70.67
2023-03-26T01:35:29.166Z,70.51
2023-03-26T01:38:02.096Z,70.65
2023-03-26T01:40:43.125Z,70.67
2023-03-26T01:43:24.539Z,70.99
2023-03-26T01:45:52.833Z,70.83
2023-03-26T01:48:20.783Z,70.90
2023-03-26T01:50:49.107Z,70.12
2023-03-26T01:53:16.185Z,70.78
2023-03-26T01:56:02.479Z,70.09
2023-03-26T01:58:37.346Z,70.01
2023-03-26T02:01:19.743Z,70.17
2023-03-26T02:04:11.400Z,70.19
2023-03-26T02:06:46.250Z,71.31
2023-03-26T02:09:20.371Z,71.07
2023-03-26T02:11:49.007Z,71.27
2023-03-26T02:14:16.564Z,71.39
2023-03-26T02:16:47.054Z,70.86
2023-03-26T02:19:21.820Z,71.44
2023-03-26T02:21:51.727Z,71.51
2023-03-26T02:24:20.634Z,70.89
2023-03-26T02:26:49.988Z,71.56
2023-03-26T02:29:20.533Z,71.42
2023-03-26T02:31:49.687Z,70.82
2023-03-26T02:34:17.210Z,71.39
2023-03-26T02:36:52.583Z,71.14
2023-03-26T02:39:19.843Z,71.39
2023-03-26T02:41:54.909Z,71.38
2023-03-26T02:44:22.156Z,70.98
2023-03-26T02:46:58.314Z,70.82
2023-03-26T02:49:44.081Z,70.73
2023-03-26T02:52:18.761Z,71.33
2023-03-26T02:54:48.536Z,71.14
2023-03-26T02:57:20.940Z,71.29
2023-03-26T03:00:26.582Z,71.27
2023-03-26T03:03:26.689Z,72.12
2023-03-26T03:05:59.605Z,71.66
2023-03-26T03:08:46.598Z,71.85
2023-03-26T03:11:22.290Z,72.22
2023-03-26T03:13:51.515Z,72.14
2023-03-26T03:16:24.816Z,72.15
2023-03-26T03:18:57.768Z,72.06
2023-03-26T03:21:36.265Z,72.09
2023-03-26T03:24:03.998Z,71.76
2023-03-26T03:26:36.620Z,72.13
2023-03-26T03:29:22.024Z,71.68
2023-03-26T03:31:49.558Z,72.23
2023-03-26T03:34:33.474Z,72.39
2023-03-26T03:37:00.782Z,71.97
2023-03-26T03:39:35.030Z,71.14
2023-03-26T03:42:02.438Z,71.43
2023-03-26T03:44:29.835Z,71.66
2023-03-26T03:46:57.428Z,71.54
2023-03-26T03:49:24.512Z,71.47
2023-03-26T03:51:51.789Z,71.26
2023-03-26T03:54:28.605Z,71.73
2023-03-26T03:57:10.235Z,71.60
2023-03-26T03:59:53.206Z,71.44
2023-03-26T04:02:26.608Z,71.14
2023-03-26T04:04:58.571Z,71.37
2023-03-26T04:07:26.759Z,71.52
2023-03-26T04:10:08.848Z,72.00
2023-03-26T04:12:54.576Z,71.34
2023-03-26T04:15:36.318Z,71.42
2023-03-26T04:18:04.051Z,70.62
2023-03-26T04:20:32.281Z,70.45
2023-03-26T04:23:00.724Z,70.78
2023-03-26T04:25:30.553Z,70.43
2023-03-26T04:28:08.732Z,70.87
2023-03-26T04:30:49.038Z,70.48
2023-03-26T04:33:33.751Z,70.09
2023-03-26T04:36:03.197Z,70.24
2023-03-26T04:38:45.984Z,70.03
2023-03-26T04:41:15.953Z,69.92
2023-03-26T04:43:53.602Z,70.31
2023-03-26T04:46:33.807Z,70.62
2023-03-26T04:49:11.139Z,70.31
2023-03-26T04:51:42.042Z,70.36
2023-03-26T04:54:29.123Z,70.71
2023-03-26T04:57:06.305Z,70.28
2023-03-26T04:59:43.125Z,70.45
2023-03-26T05:02:14.190Z,70.02
2023-03-26T05:04:59.330Z,69.28
2023-03-26T05:07:30.433Z,69.95
2023-03-26T05:10:03.567Z,70.23
2023-03-26T05:12:52.775Z,70.00
2023-03-26T05:15:28.472Z,70.44
2023-03-26T05:18:16.903Z,70.73
2023-03-26T05:20:48.735Z,69.90
2023-03-26T05:23:15.761Z,70.44
2023-03-26T05:25:47.290Z,69.73
2023-03-26T05:28:24.818Z,70.75
2023-03-26T05:30:56.528Z,70.51
2023-03-26T05:33:27.268Z,70.60
2023-03-26T05:36:08.067Z,71.29
2023-03-26T05:38:35.953Z,71.32
2023-03-26T05:41:08.291Z,70.78
2023-03-26T05:43:37.657Z,71.37
2023-03-26T05:46:12.483Z,71.57
2023-03-26T05:48:39.722Z,71.69
2023-03-26T05:51:08.273Z,71.84
2023-03-26T05:53:39.580Z,70.96
2023-03-26T05:56:26.596Z,70.93
2023-03-26T05:59:12.601Z,70.84
2023-03-26T06:01:58.102Z,70.20
2023-03-26T06:04:46.072Z,70.61
2023-03-26T06:07:34.105Z,70.61
2023-03-26T06:10:18.398Z,70.31
2023-03-26T06:12:46.572Z,70.73
2023-03-26T06:15:14.058Z,71.25
2023-03-26T06:17:58.553Z,71.36
2023-03-26T06:20:37.676Z,70.97
2023-03-26T06:23:16.228Z,71.29
2023-03-26T06:26:01.867Z,71.30
2023-03-26T06:28:58.304Z,71.76
2023-03-26T06:31:44.175Z,70.96
2023-03-26T06:34:16.284Z,71.52
2023-03-26T06:36:43.269Z,71.52
2023-03-26T06:39:10.751Z,71.71
2023-03-26T06:41:45.430Z,71.28
2023-03-26T06:44:39.322Z,71.03
2023-03-26T06:47:24.902Z,70.98
2023-03-26T06:50:12.038Z,70.96
2023-03-26T06:53:05.072Z,70.86
2023-03-26T06:55:54.105Z,70.79
2023-03-26T06:58:39.466Z,71.18
2023-03-26T07:01:21.934Z,71.08
2023-03-26T07:04:07.361Z,70.68
2023-03-26T07:06:52.977Z,71.08
2023-03-26T07:09:38.456Z,70.54
2023-03-26T07:12:44.123Z,71.07
2023-03-26T07:15:37.314Z,71.35
2023-03-26T07:18:10.473Z,71.92
2023-03-26T07:20:39.695Z,71.81
2023-03-26T07:23:07.500Z,71.51
2023-03-26T07:25:53.022Z,71.83
2023-03-26T07:29:04.666Z,72.59
2023-03-26T07:31:48.171Z,72.10
2023-03-26T07:34:55.933Z,72.73
2023-03-26T07:37:39.735Z,72.73
2023-03-26T07:40:36.165Z,72.38
2023-03-26T07:43:41.704Z,73.42
2023-03-26T07:46:12.164Z,73.15
2023-03-26T07:48:51.937Z,72.73
2023-03-26T07:51:34.599Z,73.33
2023-03-26T07:54:13.382Z,73.06
2023-03-26T07:57:06.864Z,72.85
2023-03-26T07:59:51.177Z,72.12
2023-03-26T08:02:52.269Z,72.55
2023-03-26T08:06:02.075Z,71.92
2023-03-26T08:08:40.371Z,72.43
2023-03-26T08:11:58.357Z,71.78
2023-03-26T08:14:25.372Z,72.26
2023-03-26T08:17:04.358Z,72.61
2023-03-26T08:19:40.929Z,73.12
2023-03-26T08:22:20.905Z,73.15
2023-03-26T08:25:20.148Z,72.38
2023-03-26T08:27:55.947Z,72.05
2023-03-26T08:30:25.569Z,72.39
2023-03-26T08:33:00.008Z,72.57
2023-03-26T08:35:28.668Z,72.74
2023-03-26T08:37:55.916Z,72.69
2023-03-26T08:40:58.362Z,73.38
2023-03-26T08:43:31.253Z,72.72
2023-03-26T08:46:17.132Z,73.06
2023-03-26T08:49:16.888Z,73.01
2023-03-26T08:52:00.740Z,72.34
2023-03-26T08:54:57.116Z,72.31
2023-03-26T08:57:52.474Z,72.52
2023-03-26T09:00:37.989Z,73.04
2023-03-26T09:03:25.540Z,72.84
2023-03-26T09:06:17.070Z,72.81
2023-03-26T09:09:04.695Z,72.47
2023-03-26T09:11:54.656Z,72.21
2023-03-26T09:14:46.208Z,72.84
2023-03-26T09:17:28.648Z,72.57
2023-03-26T09:20:02.640Z,73.20
2023-03-26T09:22:32.865Z,73.10
2023-03-26T09:25:14.752Z,73.57
2023-03-26T09:28:22.035Z,74.28
2023-03-26T09:31:07.725Z,74.68
2023-03-26T09:33:53.989Z,74.97
2023-03-26T09:36:45.970Z,75.21
2023-03-26T09:39:39.273Z,75.25
2023-03-26T09:42:24.630Z,75.03
2023-03-26T09:45:10.704Z,75.54
2023-03-26T09:47:56.481Z,75.43
2023-03-26T09:50:56.590Z,74.87
2023-03-26T09:53:41.829Z,73.42
2023-03-26T09:56:24.034Z,73.60
2023-03-26T09:59:09.373Z,73.96
2023-03-26T10:02:04.628Z,74.11
2023-03-26T10:05:04.843Z,74.07
2023-03-26T10:07:40.847Z,74.26
2023-03-26T10:10:45.165Z,74.58
2023-03-26T10:13:18.466Z,74.84
2023-03-26T10:16:24.625Z,75.27
2023-03-26T10:19:10.545Z,74.79
2023-03-26T10:21:51.339Z,75.00
2023-03-26T10:24:30.486Z,74.56
2023-03-26T10:27:08.397Z,75.38
2023-03-26T10:30:16.864Z,75.01
2023-03-26T10:33:05.289Z,75.19
2023-03-26T10:35:42.112Z,75.07
2023-03-26T10:38:47.025Z,75.02
2023-03-26T10:41:23.040Z,75.01
2023-03-26T10:44:27.723Z,75.01
2023-03-26T10:47:01.198Z,74.52
2023-03-26T10:49:54.097Z,74.43
2023-03-26T10:52:34.652Z,74.96
2023-03-26T10:55:12.186Z,74.61
2023-03-26T10:57:52.271Z,75.07
2023-03-26T11:00:25.574Z,75.21
2023-03-26T11:03:20.842Z,74.19
2023-03-26T11:05:58.364Z,75.26
2023-03-26T11:08:52.812Z,75.58
2023-03-26T11:11:32.690Z,75.24
2023-03-26T11:14:13.692Z,75.21
2023-03-26T11:16:49.643Z,74.64
2023-03-26T11:19:37.313Z,74.38
2023-03-26T11:22:32.328Z,74.63
2023-03-26T11:25:05.744Z,74.04
2023-03-26T11:27:44.662Z,74.50
2023-03-26T11:30:17.628Z,73.97
2023-03-26T11:32:48.471Z,74.14
2023-03-26T11:35:40.477Z,74.19
2023-03-26T11:38:33.651Z,73.23
2023-03-26T11:41:03.801Z,73.32
2023-03-26T11:44:28.898Z,73.47
2023-03-26T11:47:01.741Z,73.37
2023-03-26T11:49:29.627Z,73.79
2023-03-26T11:51:56.927Z,73.46
2023-03-26T11:54:23.987Z,73.94
2023-03-26T11:57:12.283Z,73.75
2023-03-26T11:59:56.367Z,73.52
2023-03-26T12:02:29.920Z,73.47
2023-03-26T12:05:12.988Z,73.49
2023-03-26T12:07:52.937Z,73.28
2023-03-26T12:10:33.007Z,73.16
2023-03-26T12:13:03.428Z,73.01
2023-03-26T12:15:32.368Z,73.39
2023-03-26T12:18:17.731Z,72.36
2023-03-26T12:20:45.344Z,72.50
2023-03-26T12:23:42.621Z,72.83
2023-03-26T12:26:19.327Z,72.74
2023-03-26T12:28:49.734Z,72.96
2023-03-26T12:31:19.677Z,72.88
2023-03-26T12:34:35.559Z,72.49
2023-03-26T12:37:05.030Z,72.52
2023-03-26T12:40:10.555Z,72.67
2023-03-26T12:44:49.991Z,73.24
2023-03-26T12:45:31.467Z,73.05
2023-03-26T12:48:03.873Z,72.78
2023-03-26T12:50:57.783Z,73.14
2023-03-26T12:53:53.646Z,72.84
2023-03-26T12:56:37.003Z,73.77
2023-03-26T12:59:42.996Z,73.66
2023-03-26T13:02:48.765Z,73.89
2023-03-26T13:05:34.499Z,73.63
2023-03-26T13:08:25.988Z,72.90
2023-03-26T13:11:17.886Z,73.75
2023-03-26T13:13:52.970Z,72.30
2023-03-26T13:16:44.934Z,72.56
2023-03-26T13:19:34.379Z,74.00
2023-03-26T13:22:25.740Z,72.60
2023-03-26T13:25:25.132Z,73.64
2023-03-26T13:28:26.745Z,73.07
2023-03-26T13:31:07.651Z,72.92
2023-03-26T13:33:46.996Z,72.98
2023-03-26T13:36:31.890Z,73.44
2023-03-26T13:39:08.380Z,73.05
2023-03-26T13:41:47.430Z,73.77
2023-03-26T13:44:49.705Z,73.59
2023-03-26T13:47:22.661Z,73.72
2023-03-26T13:50:02.772Z,74.17
2023-03-26T13:52:40.078Z,73.83
2023-03-26T13:55:27.398Z,74.26
2023-03-26T13:58:12.403Z,73.69
2023-03-26T14:01:12.477Z,73.44
2023-03-26T14:04:01.081Z,74.25
2023-03-26T14:06:59.220Z,73.93
2023-03-26T14:09:43.139Z,74.13
2023-03-26T14:12:44.763Z,73.84
2023-03-26T14:15:16.604Z,74.15
2023-03-26T14:17:59.015Z,74.03
2023-03-26T14:20:50.374Z,74.35
2023-03-26T14:23:20.328Z,73.74
2023-03-26T14:26:08.429Z,73.92
2023-03-26T14:28:54.083Z,73.08
2023-03-26T14:31:38.802Z,73.43
2023-03-26T14:34:38.629Z,74.10
2023-03-26T14:37:27.019Z,73.49
2023-03-26T14:40:15.190Z,73.08
2023-03-26T14:43:08.114Z,73.24
2023-03-26T14:45:41.521Z,73.45
2023-03-26T14:48:27.964Z,73.66
2023-03-26T14:51:07.339Z,74.00
2023-03-26T14:53:40.519Z,74.10
2023-03-26T14:56:15.664Z,73.81
2023-03-26T14:59:04.754Z,73.64
2023-03-26T15:01:59.146Z,73.93
2023-03-26T15:04:35.401Z,74.04
2023-03-26T15:07:39.153Z,73.44
2023-03-26T15:10:54.032Z,73.45
2023-03-26T15:13:55.092Z,73.69
2023-03-26T15:17:11.070Z,73.18
2023-03-26T15:20:00.089Z,73.09
2023-03-26T15:22:45.791Z,73.20
2023-03-26T15:25:33.980Z,73.51
2023-03-26T15:28:19.728Z,74.04
2023-03-26T15:31:18.757Z,73.30
2023-03-26T15:34:12.310Z,73.14
2023-03-26T15:36:59.062Z,73.32
2023-03-26T15:40:10.037Z,73.40
2023-03-26T15:42:58.764Z,72.95
2023-03-26T15:45:48.090Z,72.29
2023-03-26T15:48:59.436Z,74.29
2023-03-26T15:51:46.365Z,73.19
2023-03-26T15:54:33.318Z,73.76
2023-03-26T15:57:24.985Z,72.88
2023-03-26T15:59:52.381Z,73.05
2023-03-26T16:02:58.312Z,73.87
2023-03-26T16:06:06.279Z,73.30
2023-03-26T16:09:11.706Z,73.29
2023-03-26T16:11:54.318Z,73.01
2023-03-26T16:14:24.627Z,73.04
2023-03-26T16:16:56.080Z,73.04
2023-03-26T16:19:23.150Z,72.63
2023-03-26T16:22:00.380Z,73.19
2023-03-26T16:24:30.809Z,73.46
2023-03-26T16:27:08.340Z,73.15
2023-03-26T16:30:01.131Z,73.28
2023-03-26T16:32:34.861Z,73.70
2023-03-26T16:35:24.102Z,73.00
2023-03-26T16:38:05.974Z,73.38
2023-03-26T16:40:36.249Z,73.39
2023-03-26T16:43:31.006Z,73.61
2023-03-26T16:46:20.049Z,72.55
2023-03-26T16:48:55.629Z,72.39
2023-03-26T16:51:53.799Z,72.28
2023-03-26T16:54:39.835Z,73.38
2023-03-26T16:57:45.606Z,73.17
2023-03-26T17:00:46.240Z,73.34
2023-03-26T17:03:27.208Z,73.25
2023-03-26T17:05:54.176Z,73.10
2023-03-26T17:08:42.251Z,73.31
2023-03-26T17:11:38.569Z,73.93
2023-03-26T17:14:23.628Z,73.99
2023-03-26T17:17:02.760Z,73.93
2023-03-26T17:19:42.027Z,74.08
2023-03-26T17:22:42.557Z,73.38
2023-03-26T17:25:52.747Z,73.93
2023-03-26T17:29:04.248Z,74.86
2023-03-26T17:31:59.649Z,74.15
2023-03-26T17:34:38.575Z,75.03
2023-03-26T17:37:21.559Z,74.45
2023-03-26T17:39:58.014Z,74.48
2023-03-26T17:42:33.162Z,74.16
2023-03-26T17:45:02.856Z,74.38
2023-03-26T17:47:41.674Z,73.83
2023-03-26T17:50:14.725Z,74.02
2023-03-26T17:53:05.368Z,75.07
2023-03-26T17:55:36.629Z,74.78
2023-03-26T17:58:06.932Z,74.34
2023-03-26T18:00:47.305Z,74.67
2023-03-26T18:03:31.248Z,74.47
2023-03-26T18:06:11.288Z,75.09
2023-03-26T18:08:56.862Z,75.00
2023-03-26T18:11:26.782Z,75.21
2023-03-26T18:14:38.880Z,75.09
2023-03-26T18:17:07.320Z,74.53
2023-03-26T18:19:53.628Z,74.85
2023-03-26T18:22:27.834Z,74.76
2023-03-26T18:24:59.900Z,74.73
2023-03-26T18:27:38.628Z,74.54
2023-03-26T18:30:16.344Z,74.12
2023-03-26T18:33:05.293Z,74.01
2023-03-26T18:35:39.802Z,74.69
2023-03-26T18:38:14.424Z,75.09
2023-03-26T18:40:44.275Z,75.44
2023-03-26T18:43:32.307Z,75.21
2023-03-26T18:46:03.007Z,74.69
2023-03-26T18:48:30.426Z,74.08
2023-03-26T18:51:04.791Z,74.17
2023-03-26T18:53:39.919Z,74.31
2023-03-26T18:56:31.910Z,73.76
2023-03-26T18:59:00.644Z,74.12
2023-03-26T19:01:32.176Z,73.95
2023-03-26T19:04:07.171Z,74.48
2023-03-26T19:06:40.072Z,74.46
2023-03-26T19:09:27.933Z,73.56
2023-03-26T19:12:05.519Z,74.34
2023-03-26T19:14:37.154Z,74.39
2023-03-26T19:17:07.132Z,74.01
2023-03-26T19:19:37.156Z,74.24
2023-03-26T19:22:06.123Z,73.79
2023-03-26T19:24:34.353Z,73.66
2023-03-26T19:27:02.848Z,73.65
2023-03-26T19:29:35.262Z,74.01
2023-03-26T19:32:15.571Z,73.57
2023-03-26T19:34:45.496Z,73.11
2023-03-26T19:37:31.555Z,72.98
2023-03-26T19:40:14.381Z,73.37
2023-03-26T19:42:44.786Z,73.67
2023-03-26T19:45:18.117Z,73.20
2023-03-26T19:47:48.667Z,73.38
2023-03-26T19:50:26.122Z,72.85
2023-03-26T19:53:17.294Z,72.87
2023-03-26T19:55:59.294Z,72.59
2023-03-26T19:58:27.401Z,72.51
2023-03-26T20:00:56.543Z,72.52
2023-03-26T20:03:46.369Z,72.89
2023-03-26T20:06:18.539Z,71.46
2023-03-26T20:08:46.649Z,70.91
2023-03-26T20:11:20.614Z,70.84
2023-03-26T20:13:48.610Z,71.51
2023-03-26T20:16:34.359Z,70.72
2023-03-26T20:19:02.571Z,69.42
2023-03-26T20:21:32.407Z,68.60
2023-03-26T20:23:59.579Z,69.80
2023-03-26T20:26:26.594Z,69.02
2023-03-26T20:28:53.973Z,69.41
2023-03-26T20:31:25.185Z,70.09
2023-03-26T20:33:54.035Z,68.93
2023-03-26T20:36:34.173Z,69.37
2023-03-26T20:39:08.530Z,69.71
2023-03-26T20:41:38.277Z,69.55
2023-03-26T20:44:13.877Z,69.33
2023-03-26T20:46:43.162Z,68.93
2023-03-26T20:49:11.688Z,69.24
2023-03-26T20:51:42.058Z,69.48
2023-03-26T20:54:21.566Z,69.36
2023-03-26T20:56:49.430Z,69.09
2023-03-26T20:59:21.835Z,69.01
2023-03-26T21:01:50.274Z,69.25
2023-03-26T21:04:17.947Z,70.02
2023-03-26T21:06:45.607Z,69.32
2023-03-26T21:09:18.370Z,69.62
2023-03-26T21:11:53.119Z,69.17
2023-03-26T21:14:26.140Z,69.96
2023-03-26T21:16:53.553Z,69.88
2023-03-26T21:19:21.205Z,69.64
2023-03-26T21:21:57.884Z,69.52
2023-03-26T21:24:33.249Z,69.59
2023-03-26T21:27:12.809Z,69.57
2023-03-26T21:29:40.372Z,69.21
2023-03-26T21:32:10.620Z,69.47
2023-03-26T21:34:42.121Z,69.39
2023-03-26T21:37:15.849Z,68.85
2023-03-26T21:39:44.962Z,69.01
2023-03-26T21:42:12.918Z,68.65
2023-03-26T21:44:40.209Z,69.06
2023-03-26T21:47:09.814Z,68.62
2023-03-26T21:49:38.615Z,69.11
2023-03-26T21:52:05.941Z,68.18
2023-03-26T21:54:33.555Z,68.79
2023-03-26T21:57:12.808Z,69.52
2023-03-26T22:00:01.377Z,69.02
2023-03-26T22:02:54.701Z,68.81
2023-03-26T22:05:48.363Z,68.87
2023-03-26T22:08:33.942Z,69.02
2023-03-26T22:11:01.528Z,69.40
2023-03-26T22:13:28.774Z,69.72
2023-03-26T22:15:56.969Z,68.93
2023-03-26T22:18:26.141Z,69.03
2023-03-26T22:20:53.385Z,68.52
2023-03-26T22:23:20.984Z,68.24
2023-03-26T22:25:48.123Z,68.76
2023-03-26T22:28:15.699Z,68.02
2023-03-26T22:30:42.801Z,67.94
2023-03-26T22:33:12.564Z,67.21
2023-03-26T22:35:42.095Z,67.29
2023-03-26T22:38:09.839Z,68.20
2023-03-26T22:40:37.041Z,67.92
2023-03-26T22:43:04.732Z,67.77
2023-03-26T22:45:32.674Z,68.22
2023-03-26T22:48:03.078Z,67.75
2023-03-26T22:50:31.529Z,67.81
2023-03-26T22:52:58.653Z,67.31
2023-03-26T22:55:29.050Z,67.51
2023-03-26T22:57:57.584Z,68.35
2023-03-26T23:00:26.642Z,67.73
2023-03-26T23:02:55.967Z,68.72
2023-03-26T23:05:23.789Z,67.90
2023-03-26T23:07:52.319Z,67.77
2023-03-26T23:10:19.496Z,67.99
2023-03-26T23:12:46.716Z,68.35
2023-03-26T23:15:14.190Z,67.91
2023-03-26T23:17:41.499Z,67.74
2023-03-26T23:20:14.758Z,67.41
2023-03-26T23:22:43.277Z,67.80
2023-03-26T23:25:11.817Z,67.92
2023-03-26T23:27:40.363Z,67.69
2023-03-26T23:30:08.328Z,67.04
2023-03-26T23:32:38.129Z,67.21
2023-03-26T23:35:06.177Z,67.41
2023-03-26T23:37:35.296Z,67.33
2023-03-26T23:40:07.522Z,67.00
2023-03-26T23:42:34.658Z,67.22
2023-03-26T23:45:02.168Z,67.04
2023-03-26T23:47:34.874Z,67.16
2023-03-26T23:50:05.440Z,67.26
2023-03-26T23:52:32.565Z,67.81
2023-03-26T23:55:02.793Z,67.62
2023-03-26T23:57:30.702Z,67.73
2023-03-26T23:59:58.467Z,67.39
